createdAt,value
2023-05-02T00:00:54.663Z,25.45
2023-05-02T00:03:21.402Z,26.33
2023-05-02T00:05:48.135Z,25.92
2023-05-02T00:08:16.189Z,25.92
2023-05-02T00:10:42.840Z,24.95
2023-05-02T00:13:10.508Z,25.10
2023-05-02T00:15:37.082Z,25.83
2023-05-02T00:18:03.760Z,26.65
2023-05-02T00:20:33.240Z,27.05
2023-05-02T00:23:03.197Z,26.77
2023-05-02T00:25:29.809Z,27.13
2023-05-02T00:27:56.415Z,26.15
2023-05-02T00:30:23.094Z,27.45
2023-05-02T00:32:49.959Z,28.48
2023-05-02T00:35:16.635Z,28.67
2023-05-02T00:37:43.300Z,29.98
2023-05-02T00:40:10.442Z,30.13
2023-05-02T00:42:37.659Z,30.00
2023-05-02T00:45:06.498Z,31.33
2023-05-02T00:47:34.171Z,30.88
2023-05-02T00:50:01.778Z,31.80
2023-05-02T00:52:29.209Z,33.92
2023-05-02T00:54:56.382Z,33.47
2023-05-02T00:57:23.226Z,34.08
2023-05-02T00:59:50.910Z,35.78
2023-05-02T01:02:35.108Z,34.28
2023-05-02T01:05:23.518Z,33.88
2023-05-02T01:08:19.115Z,35.28
2023-05-02T01:10:56.969Z,35.45
2023-05-02T01:13:32.651Z,35.45
2023-05-02T01:16:01.274Z,37.80
2023-05-02T01:18:32.535Z,37.13
2023-05-02T01:21:06.215Z,37.50
2023-05-02T01:24:15.042Z,36.05
2023-05-02T01:27:02.428Z,40.72
2023-05-02T01:29:31.280Z,40.13
2023-05-02T01:32:00.657Z,40.70
2023-05-02T01:34:28.524Z,39.60
2023-05-02T01:36:59.890Z,42.55
2023-05-02T01:39:27.219Z,42.70
2023-05-02T01:41:58.031Z,42.58
2023-05-02T01:44:26.784Z,41.67
2023-05-02T01:46:55.838Z,42.85
2023-05-02T01:49:24.365Z,43.13
2023-05-02T01:51:52.354Z,43.75
2023-05-02T01:54:21.619Z,42.60
2023-05-02T01:56:49.119Z,42.47
2023-05-02T01:59:20.167Z,40.92
2023-05-02T02:01:49.987Z,44.15
2023-05-02T02:04:19.129Z,41.35
2023-05-02T02:06:54.362Z,44.15
2023-05-02T02:09:21.630Z,40.95
2023-05-02T02:12:05.955Z,43.70
2023-05-02T02:14:37.069Z,41.60
2023-05-02T02:17:12.218Z,42.55
2023-05-02T02:19:41.387Z,40.13
2023-05-02T02:22:09.076Z,41.20
2023-05-02T02:24:38.939Z,43.03
2023-05-02T02:27:09.090Z,42.13
2023-05-02T02:29:36.008Z,43.60
2023-05-02T02:32:02.703Z,41.40
2023-05-02T02:34:29.328Z,43.45
2023-05-02T02:37:12.956Z,42.55
2023-05-02T02:40:07.004Z,45.15
2023-05-02T02:42:44.573Z,41.55
2023-05-02T02:45:33.889Z,42.72
2023-05-02T02:48:08.218Z,46.28
2023-05-02T02:50:59.658Z,43.70
2023-05-02T02:53:34.072Z,44.95
2023-05-02T02:56:13.775Z,46.45
2023-05-02T02:58:49.897Z,47.50
2023-05-02T03:01:20.569Z,50.55
2023-05-02T03:03:49.263Z,50.50
2023-05-02T03:06:17.672Z,52.38
2023-05-02T03:08:45.161Z,54.92
2023-05-02T03:11:17.028Z,52.47
2023-05-02T03:13:43.738Z,55.55
2023-05-02T03:16:39.878Z,58.30
2023-05-02T03:19:10.575Z,59.20
2023-05-02T03:21:37.825Z,59.42
2023-05-02T03:24:11.546Z,57.17
2023-05-02T03:26:38.711Z,58.00
2023-05-02T03:29:08.717Z,58.47
2023-05-02T03:31:39.334Z,58.20
2023-05-02T03:34:06.155Z,55.95
2023-05-02T03:36:33.513Z,54.78
2023-05-02T03:39:00.182Z,54.60
2023-05-02T03:41:26.961Z,56.90
2023-05-02T03:44:01.198Z,56.07
2023-05-02T03:46:28.785Z,50.65
2023-05-02T03:48:57.935Z,50.42
2023-05-02T03:51:24.630Z,48.58
2023-05-02T03:53:54.685Z,49.10
2023-05-02T03:56:21.424Z,45.80
2023-05-02T03:58:57.936Z,46.95
2023-05-02T04:01:26.324Z,47.05
2023-05-02T04:03:54.322Z,45.65
2023-05-02T04:06:23.724Z,43.38
2023-05-02T04:08:59.308Z,43.53
2023-05-02T04:11:30.475Z,46.60
2023-05-02T04:13:57.100Z,43.85
2023-05-02T04:16:23.979Z,42.75
2023-05-02T04:18:50.779Z,43.28
2023-05-02T04:21:17.886Z,42.60
2023-05-02T04:23:46.064Z,43.30
2023-05-02T04:26:12.682Z,42.03
2023-05-02T04:28:46.136Z,41.92
2023-05-02T04:31:15.456Z,42.03
2023-05-02T04:33:43.805Z,43.33
2023-05-02T04:36:11.621Z,41.30
2023-05-02T04:38:42.083Z,42.33
2023-05-02T04:41:09.924Z,40.90
2023-05-02T04:43:42.524Z,40.88
2023-05-02T04:46:09.845Z,38.78
2023-05-02T04:48:42.033Z,40.20
2023-05-02T04:51:10.156Z,38.65
2023-05-02T04:53:37.886Z,40.55
2023-05-02T04:56:04.864Z,40.00
2023-05-02T04:58:35.322Z,34.97
2023-05-02T05:01:05.217Z,40.17
2023-05-02T05:03:33.208Z,43.38
2023-05-02T05:06:00.282Z,39.58
2023-05-02T05:08:27.886Z,43.58
2023-05-02T05:10:54.662Z,41.17
2023-05-02T05:13:22.621Z,43.40
2023-05-02T05:15:50.314Z,43.80
2023-05-02T05:18:18.632Z,42.83
2023-05-02T05:20:45.687Z,40.97
2023-05-02T05:23:12.784Z,45.78
2023-05-02T05:25:40.309Z,49.70
2023-05-02T05:28:08.145Z,45.00
2023-05-02T05:30:36.972Z,45.08
2023-05-02T05:33:07.096Z,43.55
2023-05-02T05:35:33.828Z,47.38
2023-05-02T05:38:01.967Z,49.28
2023-05-02T05:40:31.404Z,47.47
2023-05-02T05:42:58.972Z,50.13
2023-05-02T05:45:33.104Z,48.33
2023-05-02T05:47:59.833Z,49.67
2023-05-02T05:50:29.913Z,49.72
2023-05-02T05:52:56.566Z,47.35
2023-05-02T05:55:23.403Z,49.83
2023-05-02T05:57:50.132Z,50.35
2023-05-02T06:00:17.245Z,48.90
2023-05-02T06:02:47.093Z,51.78
2023-05-02T06:05:21.785Z,45.13
2023-05-02T06:07:48.590Z,41.53
2023-05-02T06:10:15.303Z,35.17
2023-05-02T06:12:43.185Z,36.95
2023-05-02T06:15:11.966Z,38.08
2023-05-02T06:17:39.723Z,41.13
2023-05-02T06:20:07.141Z,42.80
2023-05-02T06:22:33.812Z,48.42
2023-05-02T06:25:00.842Z,42.10
2023-05-02T06:27:27.763Z,40.88
2023-05-02T06:29:54.511Z,39.10
2023-05-02T06:32:21.612Z,37.05
2023-05-02T06:34:48.243Z,39.45
2023-05-02T06:37:14.854Z,39.92
2023-05-02T06:39:41.523Z,37.53
2023-05-02T06:42:08.161Z,39.22
2023-05-02T06:44:35.546Z,37.05
2023-05-02T06:47:04.254Z,32.15
2023-05-02T06:49:30.890Z,28.60
2023-05-02T06:51:57.476Z,24.30
2023-05-02T06:54:24.167Z,21.52
2023-05-02T06:56:50.864Z,20.02
2023-05-02T06:59:17.682Z,14.30
2023-05-02T07:01:44.997Z,9.13
2023-05-02T07:04:11.635Z,11.18
2023-05-02T07:06:40.165Z,9.88
2023-05-02T07:09:06.842Z,11.43
2023-05-02T07:11:33.719Z,10.30
2023-05-02T07:14:00.362Z,7.10
2023-05-02T07:16:27.790Z,6.05
2023-05-02T07:18:54.440Z,5.00
2023-05-02T07:21:21.096Z,4.88
2023-05-02T07:23:47.854Z,4.95
2023-05-02T07:26:14.510Z,5.47
2023-05-02T07:28:41.133Z,5.28
2023-05-02T07:31:07.878Z,5.82
2023-05-02T07:33:34.489Z,6.13
2023-05-02T07:36:02.043Z,5.18
2023-05-02T07:38:28.720Z,5.00
2023-05-02T07:40:58.938Z,5.78
2023-05-02T07:43:26.336Z,5.80
2023-05-02T07:45:53.239Z,6.85
2023-05-02T07:48:20.265Z,7.20
2023-05-02T07:50:46.924Z,7.53
2023-05-02T07:53:13.854Z,7.47
2023-05-02T07:55:40.900Z,8.13
2023-05-02T07:58:07.561Z,9.20
2023-05-02T08:00:34.267Z,8.38
2023-05-02T08:03:01.447Z,9.57
2023-05-02T08:05:28.213Z,9.27
2023-05-02T08:07:54.811Z,9.10
2023-05-02T08:10:21.525Z,11.95
2023-05-02T08:12:48.187Z,12.48
2023-05-02T08:15:14.846Z,11.40
2023-05-02T08:17:41.534Z,10.57
2023-05-02T08:20:08.693Z,11.90
2023-05-02T08:22:35.304Z,10.55
2023-05-02T08:25:02.056Z,10.98
2023-05-02T08:27:28.749Z,11.65
2023-05-02T08:29:57.314Z,11.27
2023-05-02T08:32:25.505Z,12.68
2023-05-02T08:34:56.164Z,11.68
2023-05-02T08:37:23.077Z,12.45
2023-05-02T08:39:49.681Z,12.63
2023-05-02T08:42:16.302Z,14.13
2023-05-02T08:44:42.948Z,15.05
2023-05-02T08:47:13.408Z,14.20
2023-05-02T08:49:40.822Z,15.70
2023-05-02T08:52:09.255Z,14.63
2023-05-02T08:54:38.168Z,13.80
2023-05-02T08:57:05.773Z,16.63
2023-05-02T08:59:32.390Z,17.65
2023-05-02T09:02:13.046Z,15.85
2023-05-02T09:04:42.829Z,14.88
2023-05-02T09:07:10.894Z,15.60
2023-05-02T09:09:37.700Z,16.17
2023-05-02T09:12:04.883Z,15.63
2023-05-02T09:14:32.646Z,16.48
2023-05-02T09:17:00.777Z,15.85
2023-05-02T09:19:28.124Z,16.65
2023-05-02T09:22:01.239Z,16.65
2023-05-02T09:24:28.387Z,16.50
2023-05-02T09:27:00.757Z,16.88
2023-05-02T09:29:30.530Z,15.95
2023-05-02T09:31:57.345Z,16.90
2023-05-02T09:34:24.351Z,17.00
2023-05-02T09:36:53.823Z,18.75
2023-05-02T09:39:25.542Z,17.13
2023-05-02T09:41:52.695Z,19.60
2023-05-02T09:44:21.761Z,19.30
2023-05-02T09:46:53.203Z,19.58
2023-05-02T09:49:38.414Z,19.10
2023-05-02T09:54:39.307Z,18.30
2023-05-02T09:57:07.097Z,18.25
2023-05-02T09:59:33.942Z,17.38
2023-05-02T10:02:03.149Z,19.65
2023-05-02T10:04:32.306Z,18.98
2023-05-02T10:06:59.315Z,20.08
2023-05-02T10:09:27.956Z,21.08
2023-05-02T10:11:56.273Z,20.23
2023-05-02T10:14:27.873Z,20.42
2023-05-02T10:17:21.392Z,21.60
2023-05-02T10:20:00.635Z,23.55
2023-05-02T10:22:27.886Z,22.00
2023-05-02T10:24:57.738Z,22.45
2023-05-02T10:27:25.308Z,22.85
2023-05-02T10:29:52.832Z,23.45
2023-05-02T10:32:21.672Z,25.38
2023-05-02T10:34:50.037Z,24.00
2023-05-02T10:37:18.383Z,26.65
2023-05-02T10:39:45.664Z,24.50
2023-05-02T10:42:14.162Z,26.33
2023-05-02T10:44:41.733Z,24.58
2023-05-02T10:47:27.509Z,26.65
2023-05-02T10:49:56.554Z,26.13
2023-05-02T10:52:30.607Z,25.35
2023-05-02T10:55:19.617Z,26.57
2023-05-02T10:57:58.750Z,24.80
2023-05-02T11:00:30.583Z,24.95
2023-05-02T11:02:57.410Z,26.38
2023-05-02T11:05:25.832Z,24.88
2023-05-02T11:08:19.457Z,26.80
2023-05-02T11:10:47.147Z,25.13
2023-05-02T11:13:13.818Z,25.77
2023-05-02T11:15:40.653Z,26.48
2023-05-02T11:18:09.278Z,26.25
2023-05-02T11:20:37.119Z,26.13
2023-05-02T11:23:16.258Z,26.02
2023-05-02T11:25:50.771Z,27.17
2023-05-02T11:28:36.716Z,25.63
2023-05-02T11:31:07.527Z,25.45
2023-05-02T11:33:34.459Z,25.23
2023-05-02T11:36:01.768Z,26.10
2023-05-02T11:38:37.446Z,26.77
2023-05-02T11:41:04.436Z,27.25
2023-05-02T11:43:32.382Z,28.02
2023-05-02T11:46:00.644Z,26.08
2023-05-02T11:48:27.842Z,26.27
2023-05-02T11:51:03.361Z,26.20
2023-05-02T11:53:31.272Z,26.35
2023-05-02T11:56:00.203Z,25.67
2023-05-02T11:58:34.802Z,26.58
2023-05-02T12:01:15.951Z,26.23
2023-05-02T12:03:43.132Z,26.38
2023-05-02T12:06:12.760Z,25.88
2023-05-02T12:08:41.090Z,25.42
2023-05-02T12:11:07.838Z,26.17
2023-05-02T12:13:35.038Z,26.23
2023-05-02T12:16:02.429Z,25.70
2023-05-02T12:18:29.365Z,26.75
2023-05-02T12:20:56.844Z,26.98
2023-05-02T12:23:26.346Z,26.52
2023-05-02T12:25:53.451Z,28.23
2023-05-02T12:28:20.695Z,27.38
2023-05-02T12:30:49.872Z,27.20
2023-05-02T12:33:17.374Z,28.17
2023-05-02T12:35:47.760Z,28.02
2023-05-02T12:38:23.392Z,28.08
2023-05-02T12:40:57.476Z,28.85
2023-05-02T12:43:24.153Z,29.43
2023-05-02T12:46:08.761Z,27.40
2023-05-02T12:48:35.439Z,26.73
2023-05-02T12:51:02.143Z,27.52
2023-05-02T12:53:39.913Z,27.42
2023-05-02T12:56:07.207Z,28.05
2023-05-02T12:58:49.748Z,28.02
2023-05-02T13:01:16.908Z,28.38
2023-05-02T13:03:44.139Z,29.70
2023-05-02T13:06:10.995Z,29.40
2023-05-02T13:08:37.802Z,28.67
2023-05-02T13:11:04.610Z,29.88
2023-05-02T13:13:32.501Z,30.15
2023-05-02T13:15:59.211Z,28.60
2023-05-02T13:18:27.815Z,29.27
2023-05-02T13:20:54.843Z,29.23
2023-05-02T13:23:21.576Z,29.35
2023-05-02T13:25:48.201Z,32.42
2023-05-02T13:28:15.111Z,31.42
2023-05-02T13:30:41.906Z,30.75
2023-05-02T13:33:08.674Z,31.15
2023-05-02T13:35:35.611Z,33.05
2023-05-02T13:38:02.799Z,33.05
2023-05-02T13:40:29.761Z,32.85
2023-05-02T13:42:56.365Z,32.30
2023-05-02T13:45:23.078Z,33.20
2023-05-02T13:47:49.746Z,33.28
2023-05-02T13:50:16.530Z,34.58
2023-05-02T13:52:43.165Z,31.48
2023-05-02T13:55:09.904Z,29.83
2023-05-02T13:57:36.549Z,31.73
2023-05-02T14:00:04.369Z,30.35
2023-05-02T14:02:31.946Z,27.55
2023-05-02T14:04:58.681Z,29.10
2023-05-02T14:07:25.254Z,27.52
2023-05-02T14:09:51.889Z,26.48
2023-05-02T14:12:18.536Z,28.70
2023-05-02T14:14:45.845Z,26.63
2023-05-02T14:17:12.729Z,26.30
2023-05-02T14:19:39.417Z,32.72
2023-05-02T14:22:07.232Z,31.98
2023-05-02T14:24:33.989Z,30.67
2023-05-02T14:27:01.326Z,30.00
2023-05-02T14:29:27.982Z,30.65
2023-05-02T14:31:54.660Z,30.30
2023-05-02T14:34:21.861Z,30.65
2023-05-02T14:36:48.872Z,30.38
2023-05-02T14:39:15.630Z,29.40
2023-05-02T14:41:42.252Z,31.42
2023-05-02T14:44:08.867Z,31.75
2023-05-02T14:46:35.670Z,29.88
2023-05-02T14:49:02.354Z,29.88
2023-05-02T14:51:28.943Z,31.38
2023-05-02T14:53:55.877Z,34.38
2023-05-02T14:56:23.263Z,30.13
2023-05-02T14:58:50.031Z,30.40
2023-05-02T15:01:21.136Z,31.98
2023-05-02T15:04:05.217Z,32.50
2023-05-02T15:06:33.614Z,30.38
2023-05-02T15:09:01.581Z,30.85
2023-05-02T15:11:28.269Z,30.90
2023-05-02T15:13:56.717Z,30.88
2023-05-02T15:16:26.825Z,31.60
2023-05-02T15:18:53.868Z,29.13
2023-05-02T15:21:20.546Z,30.42
2023-05-02T15:23:47.407Z,31.42
2023-05-02T15:26:14.540Z,31.25
2023-05-02T15:28:41.354Z,34.35
2023-05-02T15:31:07.960Z,36.05
2023-05-02T15:33:35.316Z,32.60
2023-05-02T15:36:02.347Z,34.88
2023-05-02T15:38:28.968Z,32.08
2023-05-02T15:41:00.198Z,33.95
2023-05-02T15:43:27.441Z,35.40
2023-05-02T15:45:55.476Z,35.33
2023-05-02T15:48:23.041Z,33.03
2023-05-02T15:50:49.761Z,31.80
2023-05-02T15:53:17.235Z,31.23
2023-05-02T15:55:45.813Z,30.83
2023-05-02T15:58:13.054Z,32.20
2023-05-02T16:00:39.900Z,30.75
2023-05-02T16:03:06.648Z,32.42
2023-05-02T16:05:33.866Z,33.63
2023-05-02T16:08:00.802Z,32.85
2023-05-02T16:10:27.609Z,33.45
2023-05-02T16:12:54.564Z,33.83
2023-05-02T16:15:21.505Z,32.88
2023-05-02T16:17:49.196Z,32.25
2023-05-02T16:20:17.177Z,32.90
2023-05-02T16:22:48.395Z,33.08
2023-05-02T16:25:16.551Z,33.28
2023-05-02T16:27:43.584Z,33.97
2023-05-02T16:30:10.852Z,34.30
2023-05-02T16:32:37.865Z,33.13
2023-05-02T16:35:07.239Z,33.33
2023-05-02T16:37:34.812Z,34.83
2023-05-02T16:40:02.396Z,34.15
2023-05-02T16:42:29.701Z,32.33
2023-05-02T16:44:57.350Z,34.35
2023-05-02T16:47:24.236Z,36.22
2023-05-02T16:50:01.371Z,33.25
2023-05-02T16:52:28.988Z,32.70
2023-05-02T16:54:55.718Z,34.05
2023-05-02T16:57:23.122Z,33.58
2023-05-02T16:59:51.830Z,36.22
2023-05-02T17:02:22.627Z,38.22
2023-05-02T17:04:50.002Z,37.67
2023-05-02T17:07:17.410Z,38.03
2023-05-02T17:09:44.508Z,34.33
2023-05-02T17:12:12.073Z,32.83
2023-05-02T17:14:40.996Z,34.60
2023-05-02T17:17:07.779Z,35.72
2023-05-02T17:19:34.794Z,36.38
2023-05-02T17:22:02.058Z,33.30
2023-05-02T17:24:29.875Z,35.58
2023-05-02T17:26:56.884Z,34.75
2023-05-02T17:29:24.000Z,33.33
2023-05-02T17:31:51.018Z,32.17
2023-05-02T17:34:17.629Z,32.88
2023-05-02T17:36:44.593Z,32.05
2023-05-02T17:39:12.926Z,31.58
2023-05-02T17:41:39.558Z,36.78
2023-05-02T17:44:06.624Z,31.95
2023-05-02T17:46:33.385Z,29.13
2023-05-02T17:49:00.753Z,30.98
2023-05-02T17:51:27.696Z,30.48
2023-05-02T17:53:54.303Z,30.55
2023-05-02T17:56:20.921Z,31.48
2023-05-02T17:58:47.894Z,30.25
2023-05-02T18:01:14.666Z,32.15
2023-05-02T18:03:41.614Z,30.77
2023-05-02T18:06:08.832Z,30.67
2023-05-02T18:08:35.689Z,31.05
2023-05-02T18:11:03.379Z,30.88
2023-05-02T18:13:30.586Z,30.35
2023-05-02T18:15:58.271Z,31.52
2023-05-02T18:18:25.228Z,31.17
2023-05-02T18:20:51.933Z,32.22
2023-05-02T18:23:18.636Z,31.92
2023-05-02T18:25:45.401Z,30.65
2023-05-02T18:28:13.181Z,31.00
2023-05-02T18:30:40.224Z,28.55
2023-05-02T18:33:07.947Z,25.10
2023-05-02T18:35:35.519Z,25.63
2023-05-02T18:38:02.354Z,26.05
2023-05-02T18:40:29.055Z,25.70
2023-05-02T18:42:55.843Z,25.75
2023-05-02T18:45:22.453Z,26.23
2023-05-02T18:47:50.988Z,26.05
2023-05-02T18:50:18.149Z,25.70
2023-05-02T18:52:44.766Z,25.88
2023-05-02T18:55:11.427Z,25.85
2023-05-02T18:57:38.090Z,26.65
2023-05-02T19:00:09.078Z,26.90
2023-05-02T19:02:36.131Z,26.80
2023-05-02T19:05:07.537Z,26.73
2023-05-02T19:07:35.056Z,27.20
2023-05-02T19:10:03.164Z,26.17
2023-05-02T19:12:30.099Z,29.33
2023-05-02T19:14:56.771Z,27.08
2023-05-02T19:17:26.757Z,26.02
2023-05-02T19:19:54.065Z,27.33
2023-05-02T19:22:23.174Z,26.60
2023-05-02T19:24:50.823Z,26.90
2023-05-02T19:27:17.463Z,26.95
2023-05-02T19:29:44.188Z,27.00
2023-05-02T19:32:10.981Z,26.23
2023-05-02T19:34:38.311Z,25.77
2023-05-02T19:37:05.043Z,26.15
2023-05-02T19:39:31.871Z,26.42
2023-05-02T19:41:58.973Z,25.45
2023-05-02T19:44:26.019Z,26.35
2023-05-02T19:46:52.680Z,26.02
2023-05-02T19:49:19.261Z,25.58
2023-05-02T19:51:46.130Z,25.17
2023-05-02T19:54:12.715Z,25.23
2023-05-02T19:56:40.000Z,25.60
2023-05-02T19:59:06.669Z,25.38
2023-05-02T20:01:33.645Z,25.38
2023-05-02T20:04:00.958Z,25.77
2023-05-02T20:06:28.286Z,24.63
2023-05-02T20:08:55.052Z,24.55
2023-05-02T20:11:21.754Z,25.38
2023-05-02T20:13:48.392Z,25.83
2023-05-02T20:16:15.147Z,25.65
2023-05-02T20:18:41.782Z,25.13
2023-05-02T20:21:08.491Z,24.95
2023-05-02T20:23:35.198Z,28.77
2023-05-02T20:26:01.980Z,28.33
2023-05-02T20:28:28.647Z,26.80
2023-05-02T20:30:55.318Z,26.98
2023-05-02T20:33:27.615Z,26.00
2023-05-02T20:36:00.612Z,26.00
2023-05-02T20:38:27.904Z,25.00
2023-05-02T20:40:54.609Z,25.73
2023-05-02T20:43:22.715Z,25.00
2023-05-02T20:45:49.571Z,27.65
2023-05-02T20:48:18.072Z,25.38
2023-05-02T20:50:54.429Z,25.50
2023-05-02T20:53:23.732Z,25.20
2023-05-02T20:55:50.834Z,25.42
2023-05-02T20:58:17.539Z,25.30
2023-05-02T21:00:45.715Z,25.50
2023-05-02T21:03:12.405Z,25.38
2023-05-02T21:05:39.045Z,25.23
2023-05-02T21:08:05.888Z,26.00
2023-05-02T21:10:32.956Z,25.05
2023-05-02T21:12:59.614Z,26.00
2023-05-02T21:15:26.601Z,25.88
2023-05-02T21:18:03.614Z,26.15
2023-05-02T21:20:30.517Z,25.55
2023-05-02T21:22:57.175Z,25.55
2023-05-02T21:25:24.031Z,25.60
2023-05-02T21:27:51.423Z,24.52
2023-05-02T21:30:18.340Z,25.33
2023-05-02T21:32:46.031Z,30.90
2023-05-02T21:35:12.710Z,33.83
2023-05-02T21:37:39.404Z,35.88
2023-05-02T21:40:08.386Z,34.90
2023-05-02T21:42:35.152Z,34.85
2023-05-02T21:45:01.967Z,33.10
2023-05-02T21:47:28.650Z,35.33
2023-05-02T21:49:56.957Z,32.00
2023-05-02T21:52:23.601Z,27.13
2023-05-02T21:54:52.315Z,27.13
2023-05-02T21:57:19.168Z,26.83
2023-05-02T21:59:46.112Z,28.15
2023-05-02T22:02:12.795Z,27.60
2023-05-02T22:04:40.336Z,28.52
2023-05-02T22:07:07.296Z,32.55
2023-05-02T22:09:33.961Z,26.67
2023-05-02T22:12:00.957Z,25.15
2023-05-02T22:14:37.494Z,24.35
2023-05-02T22:17:11.144Z,25.48
2023-05-02T22:19:39.116Z,24.73
2023-05-02T22:22:06.423Z,25.33
2023-05-02T22:24:33.392Z,25.23
2023-05-02T22:26:59.983Z,26.52
2023-05-02T22:29:26.669Z,26.15
2023-05-02T22:31:53.310Z,26.08
2023-05-02T22:34:20.122Z,27.27
2023-05-02T22:36:46.869Z,27.08
2023-05-02T22:39:15.362Z,27.77
2023-05-02T22:41:42.639Z,27.20
2023-05-02T22:44:09.339Z,26.77
2023-05-02T22:46:38.242Z,26.83
2023-05-02T22:49:09.404Z,27.85
2023-05-02T22:51:40.081Z,27.92
2023-05-02T22:54:07.844Z,27.10
2023-05-02T22:56:34.776Z,23.95
2023-05-02T22:59:01.706Z,25.17
2023-05-02T23:01:28.447Z,24.27
2023-05-02T23:03:55.214Z,24.88
2023-05-02T23:06:21.968Z,24.45
2023-05-02T23:08:49.001Z,21.88
2023-05-02T23:11:15.882Z,20.30
2023-05-02T23:13:42.481Z,20.30
2023-05-02T23:16:09.133Z,20.05
2023-05-02T23:18:35.916Z,19.60
2023-05-02T23:21:04.258Z,20.23
2023-05-02T23:23:31.071Z,19.23
2023-05-02T23:25:57.987Z,19.08
2023-05-02T23:28:25.555Z,18.65
2023-05-02T23:30:53.488Z,17.73
2023-05-02T23:33:20.328Z,18.23
2023-05-02T23:35:47.523Z,18.95
2023-05-02T23:38:14.214Z,17.80
2023-05-02T23:40:40.910Z,17.23
2023-05-02T23:43:08.626Z,17.83
2023-05-02T23:45:35.332Z,18.13
2023-05-02T23:48:02.474Z,19.80
2023-05-02T23:50:29.137Z,18.05
2023-05-02T23:52:55.741Z,18.52
2023-05-02T23:55:22.423Z,19.60
2023-05-02T23:57:49.043Z,19.90
